Weather at Kitty Hawk Airport

Public forecast

Using degrees Celsius for public forecast. Weather courtesy of forecast.io.

Closest aviation weather report (METAR) to Kitty Hawk Airport

Report is more than 2 hours old.

Closest report is Waterkloof Air Force Base, 12.4 nm (23.0 km) W. Retrieved 2021/09/24 14:00 UTC (5 hours ago):

FAWK 241400Z AUTO 30007KT //// // ////// 30/M00 Q1023

Closest aviation forecast (TAF) to Kitty Hawk Airport

Forecast is more than 12 hours old.

Closest forecast is Waterkloof Air Force Base, 12.4 nm (23.0 km) W. Retrieved 2019/01/10 07:00 UTC (3 years ago):

TAF FAWK 100800Z 1007/1018 33007KT 9999 SCT035 PROB30 TEMPO 1007/1009 -TSRA FEW035CB BECMG 1010/1012 CAVOK PROB30 TEMPO 1016/1018 VRB03KT SCT030 FEW035TCU TX30/1013Z TN25/1018Z